Backmoor, United Kingdom
Current Conditions -  °F | °C
As of 2:50 AM on Saturday 01 Nov 2014 (Local Time) from EGCN Reporting Station
Broken Clouds Broken Clouds  
Wind Chill: 63°   Ceiling: 1900
Heat Index: 63°   Visibility: 6mi
Dew Point: 57°   Wind: 13mph
Humidity: 82%   Direction: 200°SSW
Pressure: 29.83"   Gusts: NA
Location:  53.36°N, 1.43°W
Report Text: EGCN 010250Z 20011KT 9999 BKN019 17/14 Q1010
Loading
Personal Weather Stations






























Interactive Weather Map
Tropical Storm Tracking
New forecast layout! Learn more

10-Day Weather Forecast

Advertisements
Track Severe Weather on mobile